sensor_id;sensor_type;location;lat;lon;timestamp;temperature;humidity
15707;DHT22;7953;54.302;10.128;2023-12-20T00:02:03;5.40;99.90
15707;DHT22;7953;54.302;10.128;2023-12-20T00:04:30;5.30;99.90
15707;DHT22;7953;54.302;10.128;2023-12-20T00:06:57;5.40;99.90
15707;DHT22;7953;54.302;10.128;2023-12-20T00:09:24;5.30;99.90
15707;DHT22;7953;54.302;10.128;2023-12-20T00:11:50;5.30;99.90
15707;DHT22;7953;54.302;10.128;2023-12-20T00:14:19;5.40;99.90
15707;DHT22;7953;54.302;10.128;2023-12-20T00:16:45;5.30;99.90
15707;DHT22;7953;54.302;10.128;2023-12-20T00:19:12;5.30;99.90
15707;DHT22;7953;54.302;10.128;2023-12-20T00:21:39;5.30;99.90
15707;DHT22;7953;54.302;10.128;2023-12-20T00:24:06;5.30;99.90
15707;DHT22;7953;54.302;10.128;2023-12-20T00:26:33;5.30;99.90
15707;DHT22;7953;54.302;10.128;2023-12-20T00:29:00;5.40;99.90
15707;DHT22;7953;54.302;10.128;2023-12-20T00:31:28;5.40;99.90
15707;DHT22;7953;54.302;10.128;2023-12-20T00:33:55;5.40;99.90
15707;DHT22;7953;54.302;10.128;2023-12-20T00:36:22;5.50;99.90
15707;DHT22;7953;54.302;10.128;2023-12-20T00:38:49;5.50;99.90
15707;DHT22;7953;54.302;10.128;2023-12-20T00:41:17;5.50;99.90
15707;DHT22;7953;54.302;10.128;2023-12-20T00:43:43;5.50;99.90
15707;DHT22;7953;54.302;10.128;2023-12-20T00:46:11;5.50;99.90
15707;DHT22;7953;54.302;10.128;2023-12-20T00:48:39;5.50;99.90
15707;DHT22;7953;54.302;10.128;2023-12-20T00:51:07;5.50;99.90
15707;DHT22;7953;54.302;10.128;2023-12-20T00:53:34;5.40;99.90
15707;DHT22;7953;54.302;10.128;2023-12-20T00:56:01;5.40;99.90
15707;DHT22;7953;54.302;10.128;2023-12-20T00:58:28;5.40;99.90
15707;DHT22;7953;54.302;10.128;2023-12-20T01:00:55;5.40;99.90
15707;DHT22;7953;54.302;10.128;2023-12-20T01:03:23;5.40;99.90
15707;DHT22;7953;54.302;10.128;2023-12-20T01:05:51;5.40;99.90
15707;DHT22;7953;54.302;10.128;2023-12-20T01:08:18;5.30;99.90
15707;DHT22;7953;54.302;10.128;2023-12-20T01:10:45;5.30;99.90
15707;DHT22;7953;54.302;10.128;2023-12-20T01:13:12;5.30;99.90
15707;DHT22;7953;54.302;10.128;2023-12-20T01:15:39;5.30;99.90
15707;DHT22;7953;54.302;10.128;2023-12-20T01:18:06;5.30;99.90
15707;DHT22;7953;54.302;10.128;2023-12-20T01:20:32;5.30;99.90
15707;DHT22;7953;54.302;10.128;2023-12-20T01:23:01;5.30;99.90
15707;DHT22;7953;54.302;10.128;2023-12-20T01:25:27;5.30;99.90
15707;DHT22;7953;54.302;10.128;2023-12-20T01:27:54;5.30;99.90
15707;DHT22;7953;54.302;10.128;2023-12-20T01:30:21;5.30;99.90
15707;DHT22;7953;54.302;10.128;2023-12-20T01:32:48;5.30;99.90
15707;DHT22;7953;54.302;10.128;2023-12-20T01:35:15;5.40;99.90
15707;DHT22;7953;54.302;10.128;2023-12-20T01:37:42;5.30;99.90
15707;DHT22;7953;54.302;10.128;2023-12-20T01:40:10;5.30;99.90
15707;DHT22;7953;54.302;10.128;2023-12-20T01:42:37;5.40;99.90
15707;DHT22;7953;54.302;10.128;2023-12-20T01:45:05;5.40;99.90
15707;DHT22;7953;54.302;10.128;2023-12-20T01:47:32;5.40;99.90
15707;DHT22;7953;54.302;10.128;2023-12-20T01:49:59;5.50;99.90
15707;DHT22;7953;54.302;10.128;2023-12-20T01:52:29;5.50;99.90
15707;DHT22;7953;54.302;10.128;2023-12-20T01:54:57;5.50;99.90
15707;DHT22;7953;54.302;10.128;2023-12-20T01:57:29;5.50;99.90
15707;DHT22;7953;54.302;10.128;2023-12-20T01:59:57;5.50;99.90
15707;DHT22;7953;54.302;10.128;2023-12-20T02:02:25;5.50;99.90
15707;DHT22;7953;54.302;10.128;2023-12-20T02:04:53;5.50;99.90
15707;DHT22;7953;54.302;10.128;2023-12-20T02:07:21;5.50;99.90
15707;DHT22;7953;54.302;10.128;2023-12-20T02:09:47;5.50;99.90
15707;DHT22;7953;54.302;10.128;2023-12-20T02:12:14;5.50;99.90
15707;DHT22;7953;54.302;10.128;2023-12-20T02:14:42;5.50;99.90
15707;DHT22;7953;54.302;10.128;2023-12-20T02:17:09;5.50;99.90
15707;DHT22;7953;54.302;10.128;2023-12-20T02:19:36;5.50;99.90
15707;DHT22;7953;54.302;10.128;2023-12-20T02:22:08;5.60;99.90
15707;DHT22;7953;54.302;10.128;2023-12-20T02:24:35;5.60;99.90
15707;DHT22;7953;54.302;10.128;2023-12-20T02:27:03;5.60;99.90
15707;DHT22;7953;54.302;10.128;2023-12-20T02:29:30;5.70;99.90
15707;DHT22;7953;54.302;10.128;2023-12-20T02:31:57;5.70;99.90
15707;DHT22;7953;54.302;10.128;2023-12-20T02:34:24;5.70;99.90
15707;DHT22;7953;54.302;10.128;2023-12-20T02:36:51;5.80;99.90
15707;DHT22;7953;54.302;10.128;2023-12-20T02:39:21;5.70;99.90
15707;DHT22;7953;54.302;10.128;2023-12-20T02:41:49;5.90;99.90
15707;DHT22;7953;54.302;10.128;2023-12-20T02:44:15;5.80;99.90
15707;DHT22;7953;54.302;10.128;2023-12-20T02:46:42;5.80;99.90
15707;DHT22;7953;54.302;10.128;2023-12-20T02:49:09;5.80;99.90
15707;DHT22;7953;54.302;10.128;2023-12-20T02:51:36;5.80;99.90
15707;DHT22;7953;54.302;10.128;2023-12-20T02:54:04;5.90;99.90
15707;DHT22;7953;54.302;10.128;2023-12-20T02:56:32;5.90;99.90
15707;DHT22;7953;54.302;10.128;2023-12-20T02:58:59;5.90;99.90
15707;DHT22;7953;54.302;10.128;2023-12-20T03:01:26;6.00;99.90
15707;DHT22;7953;54.302;10.128;2023-12-20T03:03:53;6.00;99.90
15707;DHT22;7953;54.302;10.128;2023-12-20T03:06:20;5.90;99.90
15707;DHT22;7953;54.302;10.128;2023-12-20T03:08:46;6.00;99.90
15707;DHT22;7953;54.302;10.128;2023-12-20T03:11:13;6.00;99.90
15707;DHT22;7953;54.302;10.128;2023-12-20T03:13:41;5.90;99.90
15707;DHT22;7953;54.302;10.128;2023-12-20T03:16:08;5.90;99.90
15707;DHT22;7953;54.302;10.128;2023-12-20T03:18:35;5.90;99.90
15707;DHT22;7953;54.302;10.128;2023-12-20T03:21:02;5.90;99.90
15707;DHT22;7953;54.302;10.128;2023-12-20T03:23:29;5.90;99.90
15707;DHT22;7953;54.302;10.128;2023-12-20T03:25:58;5.90;99.90
15707;DHT22;7953;54.302;10.128;2023-12-20T03:28:24;6.00;99.90
15707;DHT22;7953;54.302;10.128;2023-12-20T03:30:53;6.10;99.90
15707;DHT22;7953;54.302;10.128;2023-12-20T03:33:20;6.00;99.90
15707;DHT22;7953;54.302;10.128;2023-12-20T03:35:47;6.10;99.90
15707;DHT22;7953;54.302;10.128;2023-12-20T03:38:13;6.10;99.90
15707;DHT22;7953;54.302;10.128;2023-12-20T03:40:40;6.10;99.90
15707;DHT22;7953;54.302;10.128;2023-12-20T03:43:07;6.10;99.90
15707;DHT22;7953;54.302;10.128;2023-12-20T03:45:34;6.10;99.90
15707;DHT22;7953;54.302;10.128;2023-12-20T03:48:02;6.10;99.90
15707;DHT22;7953;54.302;10.128;2023-12-20T03:50:29;6.00;99.90
15707;DHT22;7953;54.302;10.128;2023-12-20T03:52:56;6.00;99.90
15707;DHT22;7953;54.302;10.128;2023-12-20T03:55:23;6.00;99.90
15707;DHT22;7953;54.302;10.128;2023-12-20T03:57:50;6.00;99.90
15707;DHT22;7953;54.302;10.128;2023-12-20T04:00:17;6.10;99.90
15707;DHT22;7953;54.302;10.128;2023-12-20T04:02:44;6.00;99.90
15707;DHT22;7953;54.302;10.128;2023-12-20T04:05:12;6.00;99.90
15707;DHT22;7953;54.302;10.128;2023-12-20T04:07:39;6.00;99.90
15707;DHT22;7953;54.302;10.128;2023-12-20T04:10:07;6.00;99.90
15707;DHT22;7953;54.302;10.128;2023-12-20T04:12:34;6.00;99.90
15707;DHT22;7953;54.302;10.128;2023-12-20T04:15:01;6.00;99.90
15707;DHT22;7953;54.302;10.128;2023-12-20T04:17:29;6.00;99.90
15707;DHT22;7953;54.302;10.128;2023-12-20T04:19:56;6.00;99.90
15707;DHT22;7953;54.302;10.128;2023-12-20T04:22:24;6.00;99.90
15707;DHT22;7953;54.302;10.128;2023-12-20T04:24:51;6.00;99.90
15707;DHT22;7953;54.302;10.128;2023-12-20T04:27:18;6.00;99.90
15707;DHT22;7953;54.302;10.128;2023-12-20T04:29:44;6.00;99.90
15707;DHT22;7953;54.302;10.128;2023-12-20T04:32:11;6.00;99.90
15707;DHT22;7953;54.302;10.128;2023-12-20T04:34:38;6.00;99.90
15707;DHT22;7953;54.302;10.128;2023-12-20T04:37:05;6.00;99.90
15707;DHT22;7953;54.302;10.128;2023-12-20T04:39:33;6.00;99.90
15707;DHT22;7953;54.302;10.128;2023-12-20T04:42:01;5.90;99.90
15707;DHT22;7953;54.302;10.128;2023-12-20T04:44:28;5.90;99.90
15707;DHT22;7953;54.302;10.128;2023-12-20T04:46:55;5.80;99.90
15707;DHT22;7953;54.302;10.128;2023-12-20T04:49:23;5.80;99.90
15707;DHT22;7953;54.302;10.128;2023-12-20T04:51:49;5.80;99.90
15707;DHT22;7953;54.302;10.128;2023-12-20T04:54:16;5.90;99.90
15707;DHT22;7953;54.302;10.128;2023-12-20T04:56:44;5.80;99.90
15707;DHT22;7953;54.302;10.128;2023-12-20T04:59:11;5.80;99.90
15707;DHT22;7953;54.302;10.128;2023-12-20T05:01:38;5.80;99.90
15707;DHT22;7953;54.302;10.128;2023-12-20T05:04:05;5.90;99.90
15707;DHT22;7953;54.302;10.128;2023-12-20T05:06:32;5.90;99.90
15707;DHT22;7953;54.302;10.128;2023-12-20T05:08:59;5.90;99.90
15707;DHT22;7953;54.302;10.128;2023-12-20T05:11:26;5.90;99.90
15707;DHT22;7953;54.302;10.128;2023-12-20T05:13:54;6.00;99.90
15707;DHT22;7953;54.302;10.128;2023-12-20T05:16:21;6.00;99.90
15707;DHT22;7953;54.302;10.128;2023-12-20T05:18:48;6.00;99.90
15707;DHT22;7953;54.302;10.128;2023-12-20T05:21:15;6.00;99.90
15707;DHT22;7953;54.302;10.128;2023-12-20T05:23:42;6.00;99.90
15707;DHT22;7953;54.302;10.128;2023-12-20T05:26:09;6.00;99.90
15707;DHT22;7953;54.302;10.128;2023-12-20T05:28:36;6.00;99.90
15707;DHT22;7953;54.302;10.128;2023-12-20T05:31:04;6.00;99.90
15707;DHT22;7953;54.302;10.128;2023-12-20T05:33:32;6.10;99.90
15707;DHT22;7953;54.302;10.128;2023-12-20T05:35:59;6.10;99.90
15707;DHT22;7953;54.302;10.128;2023-12-20T05:38:26;6.10;99.90
15707;DHT22;7953;54.302;10.128;2023-12-20T05:40:53;6.10;99.90
15707;DHT22;7953;54.302;10.128;2023-12-20T05:43:19;6.00;99.90
15707;DHT22;7953;54.302;10.128;2023-12-20T05:45:46;6.00;99.90
15707;DHT22;7953;54.302;10.128;2023-12-20T05:48:14;5.90;99.90
15707;DHT22;7953;54.302;10.128;2023-12-20T05:50:41;5.90;99.90
15707;DHT22;7953;54.302;10.128;2023-12-20T05:53:08;5.90;99.90
15707;DHT22;7953;54.302;10.128;2023-12-20T05:55:35;5.90;99.90
15707;DHT22;7953;54.302;10.128;2023-12-20T05:58:02;5.90;99.90
15707;DHT22;7953;54.302;10.128;2023-12-20T06:00:30;5.90;99.90
15707;DHT22;7953;54.302;10.128;2023-12-20T06:02:57;5.80;99.90
15707;DHT22;7953;54.302;10.128;2023-12-20T06:05:25;5.80;99.90
15707;DHT22;7953;54.302;10.128;2023-12-20T06:07:52;5.90;99.90
15707;DHT22;7953;54.302;10.128;2023-12-20T06:10:20;5.90;99.90
15707;DHT22;7953;54.302;10.128;2023-12-20T06:12:47;5.90;99.90
15707;DHT22;7953;54.302;10.128;2023-12-20T06:15:15;5.90;99.90
15707;DHT22;7953;54.302;10.128;2023-12-20T06:17:42;5.90;99.90
15707;DHT22;7953;54.302;10.128;2023-12-20T06:20:10;5.90;99.90
15707;DHT22;7953;54.302;10.128;2023-12-20T06:22:38;5.90;99.90
15707;DHT22;7953;54.302;10.128;2023-12-20T06:25:05;6.00;99.90
15707;DHT22;7953;54.302;10.128;2023-12-20T06:27:32;6.00;99.90
15707;DHT22;7953;54.302;10.128;2023-12-20T06:29:59;6.00;99.90
15707;DHT22;7953;54.302;10.128;2023-12-20T06:32:26;6.00;99.90
15707;DHT22;7953;54.302;10.128;2023-12-20T06:34:54;6.10;99.90
15707;DHT22;7953;54.302;10.128;2023-12-20T06:37:21;6.10;99.90
15707;DHT22;7953;54.302;10.128;2023-12-20T06:39:49;6.10;99.90
15707;DHT22;7953;54.302;10.128;2023-12-20T06:42:16;6.10;99.90
15707;DHT22;7953;54.302;10.128;2023-12-20T06:44:43;6.10;99.90
15707;DHT22;7953;54.302;10.128;2023-12-20T06:47:10;6.10;99.90
15707;DHT22;7953;54.302;10.128;2023-12-20T06:49:37;6.20;99.90
15707;DHT22;7953;54.302;10.128;2023-12-20T06:52:04;6.10;99.90
15707;DHT22;7953;54.302;10.128;2023-12-20T06:54:30;6.10;99.90
15707;DHT22;7953;54.302;10.128;2023-12-20T06:57:01;6.10;99.90
15707;DHT22;7953;54.302;10.128;2023-12-20T06:59:28;6.10;99.90
15707;DHT22;7953;54.302;10.128;2023-12-20T07:01:55;6.10;99.90
15707;DHT22;7953;54.302;10.128;2023-12-20T07:04:22;6.10;99.90
15707;DHT22;7953;54.302;10.128;2023-12-20T07:06:49;6.10;99.90
15707;DHT22;7953;54.302;10.128;2023-12-20T07:09:20;6.10;99.90
15707;DHT22;7953;54.302;10.128;2023-12-20T07:11:47;6.10;99.90
15707;DHT22;7953;54.302;10.128;2023-12-20T07:14:15;6.10;99.90
15707;DHT22;7953;54.302;10.128;2023-12-20T07:16:42;6.10;99.90
15707;DHT22;7953;54.302;10.128;2023-12-20T07:19:09;6.10;99.90
15707;DHT22;7953;54.302;10.128;2023-12-20T07:21:36;6.00;99.90
15707;DHT22;7953;54.302;10.128;2023-12-20T07:24:03;6.00;99.90
15707;DHT22;7953;54.302;10.128;2023-12-20T07:26:30;6.00;99.90
15707;DHT22;7953;54.302;10.128;2023-12-20T07:28:57;6.00;99.90
15707;DHT22;7953;54.302;10.128;2023-12-20T07:31:26;6.00;99.90
15707;DHT22;7953;54.302;10.128;2023-12-20T07:33:53;6.00;99.90
15707;DHT22;7953;54.302;10.128;2023-12-20T07:36:20;5.90;99.90
15707;DHT22;7953;54.302;10.128;2023-12-20T07:38:47;6.00;99.90
15707;DHT22;7953;54.302;10.128;2023-12-20T07:41:14;6.00;99.90
15707;DHT22;7953;54.302;10.128;2023-12-20T07:43:42;6.00;99.90
15707;DHT22;7953;54.302;10.128;2023-12-20T07:46:10;6.10;99.90
15707;DHT22;7953;54.302;10.128;2023-12-20T07:48:38;6.10;99.90
15707;DHT22;7953;54.302;10.128;2023-12-20T07:51:06;6.10;99.90
15707;DHT22;7953;54.302;10.128;2023-12-20T07:53:35;6.10;99.90
15707;DHT22;7953;54.302;10.128;2023-12-20T07:56:13;6.10;99.90
15707;DHT22;7953;54.302;10.128;2023-12-20T07:58:40;6.10;99.90
15707;DHT22;7953;54.302;10.128;2023-12-20T08:01:07;6.20;99.90
15707;DHT22;7953;54.302;10.128;2023-12-20T08:03:35;6.10;99.90
15707;DHT22;7953;54.302;10.128;2023-12-20T08:06:04;6.10;99.90
15707;DHT22;7953;54.302;10.128;2023-12-20T08:08:31;6.10;99.90
15707;DHT22;7953;54.302;10.128;2023-12-20T08:10:58;6.10;99.90
15707;DHT22;7953;54.302;10.128;2023-12-20T08:13:26;6.10;99.90
15707;DHT22;7953;54.302;10.128;2023-12-20T08:15:53;6.10;99.90
15707;DHT22;7953;54.302;10.128;2023-12-20T08:18:21;6.10;99.90
15707;DHT22;7953;54.302;10.128;2023-12-20T08:20:49;6.10;99.90
15707;DHT22;7953;54.302;10.128;2023-12-20T08:23:19;6.10;99.90
15707;DHT22;7953;54.302;10.128;2023-12-20T08:25:47;6.10;99.90
15707;DHT22;7953;54.302;10.128;2023-12-20T08:28:14;6.10;99.90
15707;DHT22;7953;54.302;10.128;2023-12-20T08:30:41;6.00;99.90
15707;DHT22;7953;54.302;10.128;2023-12-20T08:33:08;6.00;99.90
15707;DHT22;7953;54.302;10.128;2023-12-20T08:35:38;6.00;99.90
15707;DHT22;7953;54.302;10.128;2023-12-20T08:38:05;6.00;99.90
15707;DHT22;7953;54.302;10.128;2023-12-20T08:40:33;5.90;99.90
15707;DHT22;7953;54.302;10.128;2023-12-20T08:43:01;5.90;99.90
15707;DHT22;7953;54.302;10.128;2023-12-20T08:45:30;5.90;99.90
15707;DHT22;7953;54.302;10.128;2023-12-20T08:48:00;5.80;99.90
15707;DHT22;7953;54.302;10.128;2023-12-20T08:50:29;5.80;99.90
15707;DHT22;7953;54.302;10.128;2023-12-20T08:52:56;5.70;99.90
15707;DHT22;7953;54.302;10.128;2023-12-20T08:55:37;5.70;99.90
15707;DHT22;7953;54.302;10.128;2023-12-20T08:58:04;5.70;99.90
15707;DHT22;7953;54.302;10.128;2023-12-20T09:00:33;5.60;99.90
15707;DHT22;7953;54.302;10.128;2023-12-20T09:03:02;5.60;99.90
15707;DHT22;7953;54.302;10.128;2023-12-20T09:05:30;5.50;99.90
15707;DHT22;7953;54.302;10.128;2023-12-20T09:07:56;5.50;99.90
15707;DHT22;7953;54.302;10.128;2023-12-20T09:10:23;5.50;99.90
15707;DHT22;7953;54.302;10.128;2023-12-20T09:12:52;5.50;99.90
15707;DHT22;7953;54.302;10.128;2023-12-20T09:15:22;5.40;99.90
15707;DHT22;7953;54.302;10.128;2023-12-20T09:17:49;5.40;99.90
15707;DHT22;7953;54.302;10.128;2023-12-20T09:20:15;5.40;99.90
15707;DHT22;7953;54.302;10.128;2023-12-20T09:22:42;5.40;99.90
15707;DHT22;7953;54.302;10.128;2023-12-20T09:25:10;5.40;99.90
15707;DHT22;7953;54.302;10.128;2023-12-20T09:27:38;5.40;99.90
15707;DHT22;7953;54.302;10.128;2023-12-20T09:30:07;5.40;99.90
15707;DHT22;7953;54.302;10.128;2023-12-20T09:32:34;5.30;99.90
15707;DHT22;7953;54.302;10.128;2023-12-20T09:35:01;5.30;99.90
15707;DHT22;7953;54.302;10.128;2023-12-20T09:37:28;5.30;99.90
15707;DHT22;7953;54.302;10.128;2023-12-20T09:39:55;5.30;99.90
15707;DHT22;7953;54.302;10.128;2023-12-20T09:42:28;5.20;99.90
15707;DHT22;7953;54.302;10.128;2023-12-20T09:44:58;5.30;99.90
15707;DHT22;7953;54.302;10.128;2023-12-20T09:47:28;5.30;99.90
15707;DHT22;7953;54.302;10.128;2023-12-20T09:49:55;5.30;99.90
15707;DHT22;7953;54.302;10.128;2023-12-20T09:52:22;5.30;99.90
15707;DHT22;7953;54.302;10.128;2023-12-20T09:54:52;5.30;99.90
15707;DHT22;7953;54.302;10.128;2023-12-20T09:57:20;5.30;99.90
15707;DHT22;7953;54.302;10.128;2023-12-20T09:59:47;5.20;99.90
15707;DHT22;7953;54.302;10.128;2023-12-20T10:02:14;5.20;99.90
15707;DHT22;7953;54.302;10.128;2023-12-20T10:04:47;5.20;99.90
15707;DHT22;7953;54.302;10.128;2023-12-20T10:07:14;5.30;99.90
15707;DHT22;7953;54.302;10.128;2023-12-20T10:09:42;5.30;99.90
15707;DHT22;7953;54.302;10.128;2023-12-20T10:12:09;5.40;99.90
15707;DHT22;7953;54.302;10.128;2023-12-20T10:14:36;5.40;99.90
15707;DHT22;7953;54.302;10.128;2023-12-20T10:17:05;5.50;99.90
15707;DHT22;7953;54.302;10.128;2023-12-20T10:19:33;5.50;99.90
15707;DHT22;7953;54.302;10.128;2023-12-20T10:22:03;5.50;99.90
15707;DHT22;7953;54.302;10.128;2023-12-20T10:24:30;5.60;99.90
15707;DHT22;7953;54.302;10.128;2023-12-20T10:27:04;5.70;99.90
15707;DHT22;7953;54.302;10.128;2023-12-20T10:29:32;5.80;99.90
15707;DHT22;7953;54.302;10.128;2023-12-20T10:32:00;5.80;99.90
15707;DHT22;7953;54.302;10.128;2023-12-20T10:34:27;5.80;99.90
15707;DHT22;7953;54.302;10.128;2023-12-20T10:36:53;5.70;99.90
15707;DHT22;7953;54.302;10.128;2023-12-20T10:39:22;5.70;99.90
15707;DHT22;7953;54.302;10.128;2023-12-20T10:41:49;5.60;99.90
15707;DHT22;7953;54.302;10.128;2023-12-20T10:44:17;5.50;99.90
15707;DHT22;7953;54.302;10.128;2023-12-20T10:46:44;5.50;99.90
15707;DHT22;7953;54.302;10.128;2023-12-20T10:49:17;5.50;99.90
15707;DHT22;7953;54.302;10.128;2023-12-20T10:51:47;5.50;99.90
15707;DHT22;7953;54.302;10.128;2023-12-20T10:54:15;5.50;99.90
15707;DHT22;7953;54.302;10.128;2023-12-20T10:56:44;5.50;99.90
15707;DHT22;7953;54.302;10.128;2023-12-20T10:59:11;5.60;99.90
15707;DHT22;7953;54.302;10.128;2023-12-20T11:01:42;5.70;99.90
15707;DHT22;7953;54.302;10.128;2023-12-20T11:04:15;5.70;99.90
15707;DHT22;7953;54.302;10.128;2023-12-20T11:06:49;5.70;99.90
15707;DHT22;7953;54.302;10.128;2023-12-20T11:09:22;5.60;99.90
15707;DHT22;7953;54.302;10.128;2023-12-20T11:11:59;5.60;99.90
15707;DHT22;7953;54.302;10.128;2023-12-20T11:14:33;5.50;99.90
15707;DHT22;7953;54.302;10.128;2023-12-20T11:17:08;5.50;99.90
15707;DHT22;7953;54.302;10.128;2023-12-20T11:19:38;5.50;99.90
15707;DHT22;7953;54.302;10.128;2023-12-20T11:22:05;5.50;99.90
15707;DHT22;7953;54.302;10.128;2023-12-20T11:24:33;5.50;99.90
15707;DHT22;7953;54.302;10.128;2023-12-20T11:27:05;5.60;99.90
15707;DHT22;7953;54.302;10.128;2023-12-20T11:29:35;5.70;99.90
15707;DHT22;7953;54.302;10.128;2023-12-20T11:32:03;5.80;99.90
15707;DHT22;7953;54.302;10.128;2023-12-20T11:34:51;5.80;99.90
15707;DHT22;7953;54.302;10.128;2023-12-20T11:37:19;5.80;99.90
15707;DHT22;7953;54.302;10.128;2023-12-20T11:39:55;5.90;99.90
15707;DHT22;7953;54.302;10.128;2023-12-20T11:42:24;5.90;99.90
15707;DHT22;7953;54.302;10.128;2023-12-20T11:44:51;5.80;99.90
15707;DHT22;7953;54.302;10.128;2023-12-20T11:47:18;5.80;99.90
15707;DHT22;7953;54.302;10.128;2023-12-20T11:49:47;5.80;99.90
15707;DHT22;7953;54.302;10.128;2023-12-20T11:52:14;5.80;99.90
15707;DHT22;7953;54.302;10.128;2023-12-20T11:54:41;5.80;99.90
15707;DHT22;7953;54.302;10.128;2023-12-20T11:57:08;5.80;99.90
15707;DHT22;7953;54.302;10.128;2023-12-20T11:59:36;5.80;99.90
15707;DHT22;7953;54.302;10.128;2023-12-20T12:02:03;5.80;99.90
15707;DHT22;7953;54.302;10.128;2023-12-20T12:04:30;5.80;99.90
15707;DHT22;7953;54.302;10.128;2023-12-20T12:06:57;5.80;99.90
15707;DHT22;7953;54.302;10.128;2023-12-20T12:09:24;5.80;99.90
15707;DHT22;7953;54.302;10.128;2023-12-20T12:11:51;5.80;99.90
15707;DHT22;7953;54.302;10.128;2023-12-20T12:14:18;5.80;99.90
15707;DHT22;7953;54.302;10.128;2023-12-20T12:16:48;5.90;99.90
15707;DHT22;7953;54.302;10.128;2023-12-20T12:19:22;5.90;99.90
15707;DHT22;7953;54.302;10.128;2023-12-20T12:21:49;6.00;99.90
15707;DHT22;7953;54.302;10.128;2023-12-20T12:24:20;6.00;99.90
15707;DHT22;7953;54.302;10.128;2023-12-20T12:26:50;6.10;99.90
15707;DHT22;7953;54.302;10.128;2023-12-20T12:29:17;6.20;99.90
15707;DHT22;7953;54.302;10.128;2023-12-20T12:31:44;6.30;99.90
15707;DHT22;7953;54.302;10.128;2023-12-20T12:34:12;6.50;99.90
15707;DHT22;7953;54.302;10.128;2023-12-20T12:36:39;6.60;99.90
15707;DHT22;7953;54.302;10.128;2023-12-20T12:39:06;6.40;99.90
15707;DHT22;7953;54.302;10.128;2023-12-20T12:41:34;6.40;99.90
15707;DHT22;7953;54.302;10.128;2023-12-20T12:44:00;6.30;99.90
15707;DHT22;7953;54.302;10.128;2023-12-20T12:46:27;6.20;99.90
15707;DHT22;7953;54.302;10.128;2023-12-20T12:48:54;6.20;99.90
15707;DHT22;7953;54.302;10.128;2023-12-20T12:51:23;6.10;99.90
15707;DHT22;7953;54.302;10.128;2023-12-20T12:53:50;6.00;99.90
15707;DHT22;7953;54.302;10.128;2023-12-20T12:56:17;6.00;99.90
15707;DHT22;7953;54.302;10.128;2023-12-20T12:58:44;6.00;99.90
15707;DHT22;7953;54.302;10.128;2023-12-20T13:01:11;6.00;99.90
15707;DHT22;7953;54.302;10.128;2023-12-20T13:03:38;5.90;99.90
15707;DHT22;7953;54.302;10.128;2023-12-20T13:06:05;6.00;99.90
15707;DHT22;7953;54.302;10.128;2023-12-20T13:08:35;6.00;99.90
15707;DHT22;7953;54.302;10.128;2023-12-20T13:11:02;6.00;99.90
15707;DHT22;7953;54.302;10.128;2023-12-20T13:13:31;6.00;99.90
15707;DHT22;7953;54.302;10.128;2023-12-20T13:15:58;6.00;99.90
15707;DHT22;7953;54.302;10.128;2023-12-20T13:18:26;6.10;99.90
15707;DHT22;7953;54.302;10.128;2023-12-20T13:20:53;6.10;99.90
15707;DHT22;7953;54.302;10.128;2023-12-20T13:23:20;6.10;99.90
15707;DHT22;7953;54.302;10.128;2023-12-20T13:25:48;6.10;99.90
15707;DHT22;7953;54.302;10.128;2023-12-20T13:28:16;6.20;99.90
15707;DHT22;7953;54.302;10.128;2023-12-20T13:30:43;6.20;99.90
15707;DHT22;7953;54.302;10.128;2023-12-20T13:33:11;6.20;99.90
15707;DHT22;7953;54.302;10.128;2023-12-20T13:35:38;6.20;99.90
15707;DHT22;7953;54.302;10.128;2023-12-20T13:38:05;6.20;99.90
15707;DHT22;7953;54.302;10.128;2023-12-20T13:40:33;6.20;99.90
15707;DHT22;7953;54.302;10.128;2023-12-20T13:43:01;6.20;99.90
15707;DHT22;7953;54.302;10.128;2023-12-20T13:45:29;6.20;99.90
15707;DHT22;7953;54.302;10.128;2023-12-20T13:47:56;6.20;99.90
15707;DHT22;7953;54.302;10.128;2023-12-20T13:50:24;6.20;99.90
15707;DHT22;7953;54.302;10.128;2023-12-20T13:52:50;6.20;99.90
15707;DHT22;7953;54.302;10.128;2023-12-20T13:55:17;6.10;99.90
15707;DHT22;7953;54.302;10.128;2023-12-20T13:57:47;6.10;99.90
15707;DHT22;7953;54.302;10.128;2023-12-20T14:00:16;6.00;99.90
15707;DHT22;7953;54.302;10.128;2023-12-20T14:02:44;6.00;99.90
15707;DHT22;7953;54.302;10.128;2023-12-20T14:05:11;6.00;99.90
15707;DHT22;7953;54.302;10.128;2023-12-20T14:07:40;6.00;99.90
15707;DHT22;7953;54.302;10.128;2023-12-20T14:10:10;5.90;99.90
15707;DHT22;7953;54.302;10.128;2023-12-20T14:12:38;5.90;99.90
15707;DHT22;7953;54.302;10.128;2023-12-20T14:15:10;5.80;99.90
15707;DHT22;7953;54.302;10.128;2023-12-20T14:17:40;5.80;99.90
15707;DHT22;7953;54.302;10.128;2023-12-20T14:20:08;5.80;99.90
15707;DHT22;7953;54.302;10.128;2023-12-20T14:22:38;5.70;99.90
15707;DHT22;7953;54.302;10.128;2023-12-20T14:25:10;5.70;99.90
15707;DHT22;7953;54.302;10.128;2023-12-20T14:27:37;5.60;99.90
15707;DHT22;7953;54.302;10.128;2023-12-20T14:30:05;5.60;99.90
15707;DHT22;7953;54.302;10.128;2023-12-20T14:32:35;5.60;99.90
15707;DHT22;7953;54.302;10.128;2023-12-20T14:35:06;5.50;99.90
15707;DHT22;7953;54.302;10.128;2023-12-20T14:37:33;5.50;99.90
15707;DHT22;7953;54.302;10.128;2023-12-20T14:40:00;5.40;99.90
15707;DHT22;7953;54.302;10.128;2023-12-20T14:42:28;5.40;99.90
15707;DHT22;7953;54.302;10.128;2023-12-20T14:44:55;5.30;99.90
15707;DHT22;7953;54.302;10.128;2023-12-20T14:47:22;5.30;99.90
15707;DHT22;7953;54.302;10.128;2023-12-20T14:49:50;5.30;99.90
15707;DHT22;7953;54.302;10.128;2023-12-20T14:52:19;5.30;99.90
15707;DHT22;7953;54.302;10.128;2023-12-20T14:54:46;5.30;99.90
15707;DHT22;7953;54.302;10.128;2023-12-20T14:57:12;5.20;99.90
15707;DHT22;7953;54.302;10.128;2023-12-20T14:59:39;5.20;99.90
15707;DHT22;7953;54.302;10.128;2023-12-20T15:02:06;5.20;99.90
15707;DHT22;7953;54.302;10.128;2023-12-20T15:04:33;5.20;99.90
15707;DHT22;7953;54.302;10.128;2023-12-20T15:07:00;5.10;99.90
15707;DHT22;7953;54.302;10.128;2023-12-20T15:09:29;5.10;99.90
15707;DHT22;7953;54.302;10.128;2023-12-20T15:11:56;5.10;99.90
15707;DHT22;7953;54.302;10.128;2023-12-20T15:14:23;5.10;99.90
15707;DHT22;7953;54.302;10.128;2023-12-20T15:16:49;5.10;99.90
15707;DHT22;7953;54.302;10.128;2023-12-20T15:19:16;5.20;99.90
15707;DHT22;7953;54.302;10.128;2023-12-20T15:21:43;5.20;99.90
15707;DHT22;7953;54.302;10.128;2023-12-20T15:24:10;5.20;99.90
15707;DHT22;7953;54.302;10.128;2023-12-20T15:26:42;5.20;99.90
15707;DHT22;7953;54.302;10.128;2023-12-20T15:29:09;5.20;99.90
15707;DHT22;7953;54.302;10.128;2023-12-20T15:31:42;5.20;99.90
15707;DHT22;7953;54.302;10.128;2023-12-20T15:34:09;5.20;99.90
15707;DHT22;7953;54.302;10.128;2023-12-20T15:36:36;5.20;99.90
15707;DHT22;7953;54.302;10.128;2023-12-20T15:39:03;5.10;99.90
15707;DHT22;7953;54.302;10.128;2023-12-20T15:41:30;5.20;99.90
15707;DHT22;7953;54.302;10.128;2023-12-20T15:43:58;5.10;99.90
15707;DHT22;7953;54.302;10.128;2023-12-20T15:46:25;5.20;99.90
15707;DHT22;7953;54.302;10.128;2023-12-20T15:48:52;5.20;99.90